sensor_id;sensor_type;location;lat;lon;timestamp;P1;durP1;ratioP1;P2;durP2;ratioP2
56911;SDS011;42800;53.928;27.662;2023-04-25T00:02:03;4.25;;;2.65;;
56911;SDS011;42800;53.928;27.662;2023-04-25T00:04:30;8.90;;;3.30;;
56911;SDS011;42800;53.928;27.662;2023-04-25T00:06:58;7.57;;;3.10;;
56911;SDS011;42800;53.928;27.662;2023-04-25T00:09:26;5.65;;;3.10;;
56911;SDS011;42800;53.928;27.662;2023-04-25T00:11:52;5.13;;;2.85;;
56911;SDS011;42800;53.928;27.662;2023-04-25T00:14:18;4.75;;;2.85;;
56911;SDS011;42800;53.928;27.662;2023-04-25T00:16:44;7.50;;;2.88;;
56911;SDS011;42800;53.928;27.662;2023-04-25T00:19:10;8.60;;;3.28;;
56911;SDS011;42800;53.928;27.662;2023-04-25T00:21:37;6.80;;;3.53;;
56911;SDS011;42800;53.928;27.662;2023-04-25T00:24:05;7.97;;;3.22;;
56911;SDS011;42800;53.928;27.662;2023-04-25T00:26:33;5.93;;;3.10;;
56911;SDS011;42800;53.928;27.662;2023-04-25T00:29:00;5.03;;;3.28;;
56911;SDS011;42800;53.928;27.662;2023-04-25T00:31:26;6.82;;;3.65;;
56911;SDS011;42800;53.928;27.662;2023-04-25T00:33:51;5.85;;;3.17;;
56911;SDS011;42800;53.928;27.662;2023-04-25T00:36:18;5.65;;;3.20;;
56911;SDS011;42800;53.928;27.662;2023-04-25T00:38:45;4.38;;;3.20;;
56911;SDS011;42800;53.928;27.662;2023-04-25T00:41:11;4.45;;;2.88;;
56911;SDS011;42800;53.928;27.662;2023-04-25T00:43:37;7.25;;;3.15;;
56911;SDS011;42800;53.928;27.662;2023-04-25T00:46:05;9.50;;;3.05;;
56911;SDS011;42800;53.928;27.662;2023-04-25T00:48:31;3.20;;;2.85;;
56911;SDS011;42800;53.928;27.662;2023-04-25T00:50:57;14.27;;;3.83;;
56911;SDS011;42800;53.928;27.662;2023-04-25T00:53:24;9.25;;;3.05;;
56911;SDS011;42800;53.928;27.662;2023-04-25T00:55:52;6.25;;;3.35;;
56911;SDS011;42800;53.928;27.662;2023-04-25T00:58:19;5.35;;;3.38;;
56911;SDS011;42800;53.928;27.662;2023-04-25T01:00:46;7.88;;;4.20;;
56911;SDS011;42800;53.928;27.662;2023-04-25T01:03:12;8.63;;;3.78;;
56911;SDS011;42800;53.928;27.662;2023-04-25T01:05:38;5.35;;;3.38;;
56911;SDS011;42800;53.928;27.662;2023-04-25T01:08:06;7.53;;;3.13;;
56911;SDS011;42800;53.928;27.662;2023-04-25T01:10:32;6.35;;;3.65;;
56911;SDS011;42800;53.928;27.662;2023-04-25T01:12:59;5.78;;;3.35;;
56911;SDS011;42800;53.928;27.662;2023-04-25T01:15:25;11.55;;;4.18;;
56911;SDS011;42800;53.928;27.662;2023-04-25T01:17:51;10.85;;;3.40;;
56911;SDS011;42800;53.928;27.662;2023-04-25T01:20:18;5.95;;;3.72;;
56911;SDS011;42800;53.928;27.662;2023-04-25T01:22:46;7.25;;;3.88;;
56911;SDS011;42800;53.928;27.662;2023-04-25T01:25:13;3.08;;;2.78;;
56911;SDS011;42800;53.928;27.662;2023-04-25T01:27:39;5.55;;;3.13;;
56911;SDS011;42800;53.928;27.662;2023-04-25T01:30:06;5.07;;;3.17;;
56911;SDS011;42800;53.928;27.662;2023-04-25T01:32:33;3.88;;;2.92;;
56911;SDS011;42800;53.928;27.662;2023-04-25T01:35:03;8.30;;;3.72;;
56911;SDS011;42800;53.928;27.662;2023-04-25T01:37:34;5.88;;;3.50;;
56911;SDS011;42800;53.928;27.662;2023-04-25T01:40:01;7.28;;;2.40;;
56911;SDS011;42800;53.928;27.662;2023-04-25T01:42:27;5.43;;;3.28;;
56911;SDS011;42800;53.928;27.662;2023-04-25T01:44:52;8.00;;;2.78;;
56911;SDS011;42800;53.928;27.662;2023-04-25T01:47:18;5.90;;;3.78;;
56911;SDS011;42800;53.928;27.662;2023-04-25T01:49:44;4.85;;;3.05;;
56911;SDS011;42800;53.928;27.662;2023-04-25T01:52:10;5.10;;;3.40;;
56911;SDS011;42800;53.928;27.662;2023-04-25T01:54:36;5.78;;;2.75;;
56911;SDS011;42800;53.928;27.662;2023-04-25T01:57:03;3.22;;;2.78;;
56911;SDS011;42800;53.928;27.662;2023-04-25T01:59:29;3.10;;;2.53;;
56911;SDS011;42800;53.928;27.662;2023-04-25T02:01:55;3.60;;;2.78;;
56911;SDS011;42800;53.928;27.662;2023-04-25T02:04:21;3.28;;;2.85;;
56911;SDS011;42800;53.928;27.662;2023-04-25T02:06:46;5.65;;;3.00;;
56911;SDS011;42800;53.928;27.662;2023-04-25T02:09:12;7.10;;;3.22;;
56911;SDS011;42800;53.928;27.662;2023-04-25T02:11:38;4.07;;;2.90;;
56911;SDS011;42800;53.928;27.662;2023-04-25T02:14:05;4.65;;;3.13;;
56911;SDS011;42800;53.928;27.662;2023-04-25T02:16:31;3.05;;;2.70;;
56911;SDS011;42800;53.928;27.662;2023-04-25T02:18:57;9.52;;;3.08;;
56911;SDS011;42800;53.928;27.662;2023-04-25T02:21:23;11.52;;;2.58;;
56911;SDS011;42800;53.928;27.662;2023-04-25T02:23:49;7.25;;;2.30;;
56911;SDS011;42800;53.928;27.662;2023-04-25T02:26:16;3.72;;;2.90;;
56911;SDS011;42800;53.928;27.662;2023-04-25T02:28:42;8.40;;;3.40;;
56911;SDS011;42800;53.928;27.662;2023-04-25T02:31:09;3.88;;;2.30;;
56911;SDS011;42800;53.928;27.662;2023-04-25T02:33:35;6.35;;;3.15;;
56911;SDS011;42800;53.928;27.662;2023-04-25T02:36:01;3.35;;;2.92;;
56911;SDS011;42800;53.928;27.662;2023-04-25T02:38:27;4.50;;;3.20;;
56911;SDS011;42800;53.928;27.662;2023-04-25T02:40:53;4.63;;;2.92;;
56911;SDS011;42800;53.928;27.662;2023-04-25T02:43:19;4.57;;;3.10;;
56911;SDS011;42800;53.928;27.662;2023-04-25T02:45:45;3.72;;;3.15;;
56911;SDS011;42800;53.928;27.662;2023-04-25T02:48:12;5.82;;;2.88;;
56911;SDS011;42800;53.928;27.662;2023-04-25T02:50:38;7.40;;;4.00;;
56911;SDS011;42800;53.928;27.662;2023-04-25T02:53:04;7.55;;;3.00;;
56911;SDS011;42800;53.928;27.662;2023-04-25T02:55:29;4.80;;;3.15;;
56911;SDS011;42800;53.928;27.662;2023-04-25T02:57:55;8.30;;;3.28;;
56911;SDS011;42800;53.928;27.662;2023-04-25T03:00:21;5.97;;;2.97;;
56911;SDS011;42800;53.928;27.662;2023-04-25T03:02:47;4.03;;;3.08;;
56911;SDS011;42800;53.928;27.662;2023-04-25T03:05:14;5.97;;;2.80;;
56911;SDS011;42800;53.928;27.662;2023-04-25T03:07:41;3.78;;;2.90;;
56911;SDS011;42800;53.928;27.662;2023-04-25T03:10:08;17.90;;;4.15;;
56911;SDS011;42800;53.928;27.662;2023-04-25T03:12:35;7.13;;;2.92;;
56911;SDS011;42800;53.928;27.662;2023-04-25T03:15:01;3.85;;;2.40;;
56911;SDS011;42800;53.928;27.662;2023-04-25T03:17:28;8.13;;;2.63;;
56911;SDS011;42800;53.928;27.662;2023-04-25T03:19:54;2.35;;;2.03;;
56911;SDS011;42800;53.928;27.662;2023-04-25T03:22:21;2.80;;;2.50;;
56911;SDS011;42800;53.928;27.662;2023-04-25T03:24:47;5.32;;;2.45;;
56911;SDS011;42800;53.928;27.662;2023-04-25T03:27:13;8.30;;;2.65;;
56911;SDS011;42800;53.928;27.662;2023-04-25T03:29:39;3.97;;;2.40;;
56911;SDS011;42800;53.928;27.662;2023-04-25T03:32:05;5.93;;;2.92;;
56911;SDS011;42800;53.928;27.662;2023-04-25T03:34:31;3.22;;;2.42;;
56911;SDS011;42800;53.928;27.662;2023-04-25T03:36:57;10.23;;;2.95;;
56911;SDS011;42800;53.928;27.662;2023-04-25T03:39:24;3.50;;;2.40;;
56911;SDS011;42800;53.928;27.662;2023-04-25T03:41:50;4.00;;;2.67;;
56911;SDS011;42800;53.928;27.662;2023-04-25T03:44:16;3.70;;;2.20;;
56911;SDS011;42800;53.928;27.662;2023-04-25T03:46:42;13.75;;;3.15;;
56911;SDS011;42800;53.928;27.662;2023-04-25T03:49:07;2.45;;;2.25;;
56911;SDS011;42800;53.928;27.662;2023-04-25T03:51:33;2.95;;;2.58;;
56911;SDS011;42800;53.928;27.662;2023-04-25T03:53:59;3.33;;;2.47;;
56911;SDS011;42800;53.928;27.662;2023-04-25T03:56:26;6.00;;;2.30;;
56911;SDS011;42800;53.928;27.662;2023-04-25T03:58:52;3.40;;;2.55;;
56911;SDS011;42800;53.928;27.662;2023-04-25T04:01:18;12.95;;;2.97;;
56911;SDS011;42800;53.928;27.662;2023-04-25T04:03:44;3.33;;;2.22;;
56911;SDS011;42800;53.928;27.662;2023-04-25T04:06:10;4.72;;;2.30;;
56911;SDS011;42800;53.928;27.662;2023-04-25T04:08:36;10.82;;;2.67;;
56911;SDS011;42800;53.928;27.662;2023-04-25T04:11:02;3.55;;;2.22;;
56911;SDS011;42800;53.928;27.662;2023-04-25T04:13:29;3.35;;;2.22;;
56911;SDS011;42800;53.928;27.662;2023-04-25T04:15:55;3.55;;;2.70;;
56911;SDS011;42800;53.928;27.662;2023-04-25T04:18:21;3.10;;;2.45;;
56911;SDS011;42800;53.928;27.662;2023-04-25T04:20:47;2.63;;;2.00;;
56911;SDS011;42800;53.928;27.662;2023-04-25T04:23:13;5.40;;;2.78;;
56911;SDS011;42800;53.928;27.662;2023-04-25T04:25:39;3.42;;;2.33;;
56911;SDS011;42800;53.928;27.662;2023-04-25T04:28:05;2.75;;;2.28;;
56911;SDS011;42800;53.928;27.662;2023-04-25T04:30:33;6.47;;;2.72;;
56911;SDS011;42800;53.928;27.662;2023-04-25T04:33:01;7.50;;;2.55;;
56911;SDS011;42800;53.928;27.662;2023-04-25T04:35:27;7.70;;;2.33;;
56911;SDS011;42800;53.928;27.662;2023-04-25T04:37:53;5.07;;;2.72;;
56911;SDS011;42800;53.928;27.662;2023-04-25T04:40:20;3.55;;;2.33;;
56911;SDS011;42800;53.928;27.662;2023-04-25T04:42:47;4.38;;;2.40;;
56911;SDS011;42800;53.928;27.662;2023-04-25T04:45:13;3.40;;;2.30;;
56911;SDS011;42800;53.928;27.662;2023-04-25T04:47:40;8.20;;;2.33;;
56911;SDS011;42800;53.928;27.662;2023-04-25T04:50:06;5.40;;;3.45;;
56911;SDS011;42800;53.928;27.662;2023-04-25T04:52:33;4.80;;;3.92;;
56911;SDS011;42800;53.928;27.662;2023-04-25T04:55:00;3.13;;;2.60;;
56911;SDS011;42800;53.928;27.662;2023-04-25T04:57:26;7.95;;;3.13;;
56911;SDS011;42800;53.928;27.662;2023-04-25T04:59:53;48.08;;;4.40;;
56911;SDS011;42800;53.928;27.662;2023-04-25T05:02:19;3.53;;;2.65;;
56911;SDS011;42800;53.928;27.662;2023-04-25T05:04:45;3.83;;;2.72;;
56911;SDS011;42800;53.928;27.662;2023-04-25T05:07:12;5.25;;;2.72;;
56911;SDS011;42800;53.928;27.662;2023-04-25T05:09:38;5.60;;;3.58;;
56911;SDS011;42800;53.928;27.662;2023-04-25T05:12:04;4.35;;;2.70;;
56911;SDS011;42800;53.928;27.662;2023-04-25T05:14:30;7.30;;;4.80;;
56911;SDS011;42800;53.928;27.662;2023-04-25T05:16:56;4.97;;;3.00;;
56911;SDS011;42800;53.928;27.662;2023-04-25T05:19:22;4.80;;;3.35;;
56911;SDS011;42800;53.928;27.662;2023-04-25T05:21:49;3.42;;;2.70;;
56911;SDS011;42800;53.928;27.662;2023-04-25T05:24:15;4.80;;;2.83;;
56911;SDS011;42800;53.928;27.662;2023-04-25T05:26:41;3.50;;;2.70;;
56911;SDS011;42800;53.928;27.662;2023-04-25T05:29:07;21.92;;;4.10;;
56911;SDS011;42800;53.928;27.662;2023-04-25T05:31:34;14.57;;;3.42;;
56911;SDS011;42800;53.928;27.662;2023-04-25T05:34:01;16.33;;;4.55;;
56911;SDS011;42800;53.928;27.662;2023-04-25T05:36:27;4.75;;;2.70;;
56911;SDS011;42800;53.928;27.662;2023-04-25T05:38:53;6.35;;;3.22;;
56911;SDS011;42800;53.928;27.662;2023-04-25T05:41:19;6.10;;;3.05;;
56911;SDS011;42800;53.928;27.662;2023-04-25T05:43:45;8.07;;;3.28;;
56911;SDS011;42800;53.928;27.662;2023-04-25T05:46:14;2.78;;;2.38;;
56911;SDS011;42800;53.928;27.662;2023-04-25T05:48:42;8.57;;;1.95;;
56911;SDS011;42800;53.928;27.662;2023-04-25T05:51:08;3.50;;;2.50;;
56911;SDS011;42800;53.928;27.662;2023-04-25T05:53:35;2.95;;;2.15;;
56911;SDS011;42800;53.928;27.662;2023-04-25T05:56:01;40.40;;;3.33;;
56911;SDS011;42800;53.928;27.662;2023-04-25T05:58:27;5.22;;;2.70;;
56911;SDS011;42800;53.928;27.662;2023-04-25T06:00:54;6.35;;;2.65;;
56911;SDS011;42800;53.928;27.662;2023-04-25T06:03:20;3.30;;;2.10;;
56911;SDS011;42800;53.928;27.662;2023-04-25T06:05:46;2.17;;;1.98;;
56911;SDS011;42800;53.928;27.662;2023-04-25T06:08:12;18.67;;;3.75;;
56911;SDS011;42800;53.928;27.662;2023-04-25T06:10:38;5.70;;;2.72;;
56911;SDS011;42800;53.928;27.662;2023-04-25T06:13:04;4.97;;;2.67;;
56911;SDS011;42800;53.928;27.662;2023-04-25T06:15:30;2.90;;;2.58;;
56911;SDS011;42800;53.928;27.662;2023-04-25T06:17:57;4.10;;;2.97;;
56911;SDS011;42800;53.928;27.662;2023-04-25T06:20:23;0.40;;;0.40;;
56911;SDS011;42800;53.928;27.662;2023-04-25T06:22:49;0.50;;;0.50;;
56911;SDS011;42800;53.928;27.662;2023-04-25T06:25:16;5.05;;;2.50;;
56911;SDS011;42800;53.928;27.662;2023-04-25T06:27:42;6.72;;;3.58;;
56911;SDS011;42800;53.928;27.662;2023-04-25T06:30:10;7.80;;;2.08;;
56911;SDS011;42800;53.928;27.662;2023-04-25T06:32:37;11.32;;;3.10;;
56911;SDS011;42800;53.928;27.662;2023-04-25T06:35:03;3.80;;;3.22;;
56911;SDS011;42800;53.928;27.662;2023-04-25T06:37:29;4.70;;;3.53;;
56911;SDS011;42800;53.928;27.662;2023-04-25T06:39:55;7.43;;;3.78;;
56911;SDS011;42800;53.928;27.662;2023-04-25T06:42:21;8.18;;;3.97;;
56911;SDS011;42800;53.928;27.662;2023-04-25T06:44:47;6.43;;;3.95;;
56911;SDS011;42800;53.928;27.662;2023-04-25T06:47:13;7.47;;;3.70;;
56911;SDS011;42800;53.928;27.662;2023-04-25T06:49:39;3.03;;;2.53;;
56911;SDS011;42800;53.928;27.662;2023-04-25T06:52:05;5.57;;;3.17;;
56911;SDS011;42800;53.928;27.662;2023-04-25T06:54:31;3.20;;;2.75;;
56911;SDS011;42800;53.928;27.662;2023-04-25T06:56:57;3.15;;;2.42;;
56911;SDS011;42800;53.928;27.662;2023-04-25T06:59:23;5.90;;;3.30;;
56911;SDS011;42800;53.928;27.662;2023-04-25T07:01:49;3.58;;;3.03;;
56911;SDS011;42800;53.928;27.662;2023-04-25T07:04:15;18.20;;;4.70;;
56911;SDS011;42800;53.928;27.662;2023-04-25T07:06:41;4.28;;;2.70;;
56911;SDS011;42800;53.928;27.662;2023-04-25T07:09:08;5.25;;;2.97;;
56911;SDS011;42800;53.928;27.662;2023-04-25T07:11:34;5.55;;;2.92;;
56911;SDS011;42800;53.928;27.662;2023-04-25T07:14:01;2.72;;;2.35;;
56911;SDS011;42800;53.928;27.662;2023-04-25T07:16:27;6.57;;;3.22;;
56911;SDS011;42800;53.928;27.662;2023-04-25T07:18:53;3.28;;;2.55;;
56911;SDS011;42800;53.928;27.662;2023-04-25T07:21:20;4.70;;;2.53;;
56911;SDS011;42800;53.928;27.662;2023-04-25T07:23:46;3.38;;;2.92;;
56911;SDS011;42800;53.928;27.662;2023-04-25T07:26:12;3.97;;;3.33;;
56911;SDS011;42800;53.928;27.662;2023-04-25T07:28:38;3.90;;;2.65;;
56911;SDS011;42800;53.928;27.662;2023-04-25T07:31:04;38.45;;;3.38;;
56911;SDS011;42800;53.928;27.662;2023-04-25T07:33:30;4.55;;;3.60;;
56911;SDS011;42800;53.928;27.662;2023-04-25T07:35:56;6.22;;;4.05;;
56911;SDS011;42800;53.928;27.662;2023-04-25T07:38:23;3.53;;;2.97;;
56911;SDS011;42800;53.928;27.662;2023-04-25T07:40:49;6.25;;;3.35;;
56911;SDS011;42800;53.928;27.662;2023-04-25T07:43:14;5.55;;;4.13;;
56911;SDS011;42800;53.928;27.662;2023-04-25T07:45:41;7.85;;;4.45;;
56911;SDS011;42800;53.928;27.662;2023-04-25T07:48:07;7.05;;;4.05;;
56911;SDS011;42800;53.928;27.662;2023-04-25T07:50:33;6.30;;;4.75;;
56911;SDS011;42800;53.928;27.662;2023-04-25T07:52:59;5.78;;;4.38;;
56911;SDS011;42800;53.928;27.662;2023-04-25T07:55:26;4.75;;;4.07;;
56911;SDS011;42800;53.928;27.662;2023-04-25T07:57:52;3.67;;;3.30;;
56911;SDS011;42800;53.928;27.662;2023-04-25T08:00:18;5.40;;;3.65;;
56911;SDS011;42800;53.928;27.662;2023-04-25T08:02:44;4.82;;;3.63;;
56911;SDS011;42800;53.928;27.662;2023-04-25T08:05:10;6.97;;;3.78;;
56911;SDS011;42800;53.928;27.662;2023-04-25T08:07:39;5.72;;;3.70;;
56911;SDS011;42800;53.928;27.662;2023-04-25T08:10:05;5.28;;;4.40;;
56911;SDS011;42800;53.928;27.662;2023-04-25T08:12:33;9.55;;;3.95;;
56911;SDS011;42800;53.928;27.662;2023-04-25T08:14:59;5.57;;;4.00;;
56911;SDS011;42800;53.928;27.662;2023-04-25T08:17:25;4.10;;;3.35;;
56911;SDS011;42800;53.928;27.662;2023-04-25T08:19:51;5.80;;;3.67;;
56911;SDS011;42800;53.928;27.662;2023-04-25T08:22:17;6.72;;;3.83;;
56911;SDS011;42800;53.928;27.662;2023-04-25T08:24:43;7.60;;;3.50;;
56911;SDS011;42800;53.928;27.662;2023-04-25T08:27:08;5.40;;;3.85;;
56911;SDS011;42800;53.928;27.662;2023-04-25T08:29:35;3.90;;;3.50;;
56911;SDS011;42800;53.928;27.662;2023-04-25T08:32:01;5.40;;;3.83;;
56911;SDS011;42800;53.928;27.662;2023-04-25T08:34:27;4.18;;;3.38;;
56911;SDS011;42800;53.928;27.662;2023-04-25T08:36:53;4.47;;;3.72;;
56911;SDS011;42800;53.928;27.662;2023-04-25T08:39:19;5.18;;;3.65;;
56911;SDS011;42800;53.928;27.662;2023-04-25T08:41:45;6.75;;;4.15;;
56911;SDS011;42800;53.928;27.662;2023-04-25T08:44:11;9.18;;;4.28;;
56911;SDS011;42800;53.928;27.662;2023-04-25T08:46:38;5.25;;;3.78;;
56911;SDS011;42800;53.928;27.662;2023-04-25T08:49:05;5.75;;;3.47;;
56911;SDS011;42800;53.928;27.662;2023-04-25T08:51:31;5.32;;;3.45;;
56911;SDS011;42800;53.928;27.662;2023-04-25T08:54:00;6.80;;;3.35;;
56911;SDS011;42800;53.928;27.662;2023-04-25T08:56:33;4.95;;;3.40;;
56911;SDS011;42800;53.928;27.662;2023-04-25T08:59:00;9.85;;;4.72;;
56911;SDS011;42800;53.928;27.662;2023-04-25T09:01:27;4.63;;;3.58;;
56911;SDS011;42800;53.928;27.662;2023-04-25T09:03:54;4.13;;;3.58;;
56911;SDS011;42800;53.928;27.662;2023-04-25T09:06:19;4.70;;;3.72;;
56911;SDS011;42800;53.928;27.662;2023-04-25T09:08:46;5.32;;;3.80;;
56911;SDS011;42800;53.928;27.662;2023-04-25T09:11:12;5.75;;;3.83;;
56911;SDS011;42800;53.928;27.662;2023-04-25T09:13:39;7.53;;;4.00;;
56911;SDS011;42800;53.928;27.662;2023-04-25T09:16:05;4.97;;;4.05;;
56911;SDS011;42800;53.928;27.662;2023-04-25T09:18:32;6.15;;;3.13;;
56911;SDS011;42800;53.928;27.662;2023-04-25T09:21:05;6.30;;;3.60;;
56911;SDS011;42800;53.928;27.662;2023-04-25T09:23:38;8.32;;;4.40;;
56911;SDS011;42800;53.928;27.662;2023-04-25T09:26:06;9.32;;;5.30;;
56911;SDS011;42800;53.928;27.662;2023-04-25T09:28:32;8.43;;;5.00;;
56911;SDS011;42800;53.928;27.662;2023-04-25T09:31:00;6.63;;;3.42;;
56911;SDS011;42800;53.928;27.662;2023-04-25T09:33:27;5.20;;;3.65;;
56911;SDS011;42800;53.928;27.662;2023-04-25T09:35:54;4.93;;;3.10;;
56911;SDS011;42800;53.928;27.662;2023-04-25T09:38:28;3.83;;;3.13;;
56911;SDS011;42800;53.928;27.662;2023-04-25T09:40:56;3.42;;;3.13;;
56911;SDS011;42800;53.928;27.662;2023-04-25T09:43:24;4.68;;;3.05;;
56911;SDS011;42800;53.928;27.662;2023-04-25T09:45:53;3.90;;;3.33;;
56911;SDS011;42800;53.928;27.662;2023-04-25T09:48:23;7.95;;;3.47;;
56911;SDS011;42800;53.928;27.662;2023-04-25T09:51:03;8.85;;;3.25;;
56911;SDS011;42800;53.928;27.662;2023-04-25T09:53:30;5.93;;;3.10;;
56911;SDS011;42800;53.928;27.662;2023-04-25T09:55:57;4.50;;;3.10;;
56911;SDS011;42800;53.928;27.662;2023-04-25T09:58:25;5.80;;;3.40;;
56911;SDS011;42800;53.928;27.662;2023-04-25T10:00:55;9.93;;;3.13;;
56911;SDS011;42800;53.928;27.662;2023-04-25T10:03:25;4.32;;;3.25;;
56911;SDS011;42800;53.928;27.662;2023-04-25T10:05:53;5.80;;;3.42;;
56911;SDS011;42800;53.928;27.662;2023-04-25T10:08:21;5.32;;;3.30;;
56911;SDS011;42800;53.928;27.662;2023-04-25T10:10:50;6.05;;;3.25;;
56911;SDS011;42800;53.928;27.662;2023-04-25T10:13:16;7.75;;;3.47;;
56911;SDS011;42800;53.928;27.662;2023-04-25T10:15:42;4.82;;;3.08;;
56911;SDS011;42800;53.928;27.662;2023-04-25T10:18:08;5.53;;;3.03;;
56911;SDS011;42800;53.928;27.662;2023-04-25T10:20:35;3.65;;;3.35;;
56911;SDS011;42800;53.928;27.662;2023-04-25T10:23:03;5.80;;;3.20;;
56911;SDS011;42800;53.928;27.662;2023-04-25T10:25:36;3.55;;;3.20;;
56911;SDS011;42800;53.928;27.662;2023-04-25T10:28:03;4.93;;;3.25;;
56911;SDS011;42800;53.928;27.662;2023-04-25T10:30:30;6.25;;;3.80;;
56911;SDS011;42800;53.928;27.662;2023-04-25T10:32:56;3.45;;;3.15;;
56911;SDS011;42800;53.928;27.662;2023-04-25T10:35:24;5.55;;;3.53;;
56911;SDS011;42800;53.928;27.662;2023-04-25T10:37:57;3.67;;;3.30;;
56911;SDS011;42800;53.928;27.662;2023-04-25T10:40:28;5.93;;;3.65;;
56911;SDS011;42800;53.928;27.662;2023-04-25T10:42:55;5.15;;;3.50;;
56911;SDS011;42800;53.928;27.662;2023-04-25T10:45:22;6.40;;;3.70;;
56911;SDS011;42800;53.928;27.662;2023-04-25T10:47:48;5.90;;;3.90;;
56911;SDS011;42800;53.928;27.662;2023-04-25T10:50:14;9.05;;;3.80;;
56911;SDS011;42800;53.928;27.662;2023-04-25T10:52:40;5.97;;;4.20;;
56911;SDS011;42800;53.928;27.662;2023-04-25T10:55:06;8.00;;;4.53;;
56911;SDS011;42800;53.928;27.662;2023-04-25T10:57:36;4.43;;;4.00;;
56911;SDS011;42800;53.928;27.662;2023-04-25T11:00:12;5.05;;;4.20;;
56911;SDS011;42800;53.928;27.662;2023-04-25T11:02:41;8.60;;;5.15;;
56911;SDS011;42800;53.928;27.662;2023-04-25T11:05:10;7.28;;;3.25;;
56911;SDS011;42800;53.928;27.662;2023-04-25T11:07:43;5.30;;;3.35;;
56911;SDS011;42800;53.928;27.662;2023-04-25T11:10:15;9.75;;;3.33;;
56911;SDS011;42800;53.928;27.662;2023-04-25T11:12:41;5.35;;;3.88;;
56911;SDS011;42800;53.928;27.662;2023-04-25T11:15:08;6.57;;;3.80;;
56911;SDS011;42800;53.928;27.662;2023-04-25T11:17:34;5.97;;;3.58;;
56911;SDS011;42800;53.928;27.662;2023-04-25T11:20:01;4.22;;;3.42;;
56911;SDS011;42800;53.928;27.662;2023-04-25T11:22:31;8.65;;;3.25;;
56911;SDS011;42800;53.928;27.662;2023-04-25T11:24:57;6.63;;;2.92;;
56911;SDS011;42800;53.928;27.662;2023-04-25T11:27:23;6.45;;;3.38;;
56911;SDS011;42800;53.928;27.662;2023-04-25T11:29:50;4.45;;;3.45;;
56911;SDS011;42800;53.928;27.662;2023-04-25T11:32:16;6.30;;;3.58;;
56911;SDS011;42800;53.928;27.662;2023-04-25T11:34:43;4.78;;;3.15;;
56911;SDS011;42800;53.928;27.662;2023-04-25T11:37:11;6.03;;;2.88;;
56911;SDS011;42800;53.928;27.662;2023-04-25T11:39:37;6.47;;;3.30;;
56911;SDS011;42800;53.928;27.662;2023-04-25T11:42:03;5.28;;;2.80;;
56911;SDS011;42800;53.928;27.662;2023-04-25T11:44:30;7.00;;;3.38;;
56911;SDS011;42800;53.928;27.662;2023-04-25T11:46:56;3.80;;;2.90;;
56911;SDS011;42800;53.928;27.662;2023-04-25T11:49:22;6.78;;;3.30;;
56911;SDS011;42800;53.928;27.662;2023-04-25T11:51:49;7.60;;;2.83;;
56911;SDS011;42800;53.928;27.662;2023-04-25T11:54:16;2.90;;;2.40;;
56911;SDS011;42800;53.928;27.662;2023-04-25T11:56:42;7.85;;;3.03;;
56911;SDS011;42800;53.928;27.662;2023-04-25T11:59:09;2.95;;;2.70;;
56911;SDS011;42800;53.928;27.662;2023-04-25T12:01:35;9.60;;;3.60;;
56911;SDS011;42800;53.928;27.662;2023-04-25T12:04:11;3.33;;;3.03;;
56911;SDS011;42800;53.928;27.662;2023-04-25T12:06:40;6.65;;;3.20;;
56911;SDS011;42800;53.928;27.662;2023-04-25T12:09:07;4.75;;;2.85;;
56911;SDS011;42800;53.928;27.662;2023-04-25T12:11:40;3.50;;;2.90;;
56911;SDS011;42800;53.928;27.662;2023-04-25T12:14:07;5.68;;;3.40;;
56911;SDS011;42800;53.928;27.662;2023-04-25T12:16:39;4.88;;;4.05;;
56911;SDS011;42800;53.928;27.662;2023-04-25T12:19:07;7.10;;;3.92;;
56911;SDS011;42800;53.928;27.662;2023-04-25T12:21:33;5.95;;;3.80;;
56911;SDS011;42800;53.928;27.662;2023-04-25T12:24:07;5.65;;;3.95;;
56911;SDS011;42800;53.928;27.662;2023-04-25T12:26:46;5.85;;;3.63;;
56911;SDS011;42800;53.928;27.662;2023-04-25T12:29:16;6.22;;;3.75;;
56911;SDS011;42800;53.928;27.662;2023-04-25T12:31:46;5.00;;;4.30;;
56911;SDS011;42800;53.928;27.662;2023-04-25T12:34:12;9.32;;;4.80;;
56911;SDS011;42800;53.928;27.662;2023-04-25T12:36:38;7.55;;;4.70;;
56911;SDS011;42800;53.928;27.662;2023-04-25T12:39:04;4.40;;;4.00;;
56911;SDS011;42800;53.928;27.662;2023-04-25T12:41:30;4.07;;;3.10;;
56911;SDS011;42800;53.928;27.662;2023-04-25T12:43:57;9.23;;;3.75;;
56911;SDS011;42800;53.928;27.662;2023-04-25T12:46:23;3.78;;;3.47;;
56911;SDS011;42800;53.928;27.662;2023-04-25T12:48:49;3.53;;;2.47;;
56911;SDS011;42800;53.928;27.662;2023-04-25T12:51:15;3.50;;;2.83;;
56911;SDS011;42800;53.928;27.662;2023-04-25T12:53:41;2.63;;;2.40;;
56911;SDS011;42800;53.928;27.662;2023-04-25T12:56:07;2.83;;;2.30;;
56911;SDS011;42800;53.928;27.662;2023-04-25T12:58:33;3.35;;;2.15;;
56911;SDS011;42800;53.928;27.662;2023-04-25T13:01:00;2.65;;;1.90;;
56911;SDS011;42800;53.928;27.662;2023-04-25T13:03:26;2.65;;;2.05;;
56911;SDS011;42800;53.928;27.662;2023-04-25T13:05:52;2.55;;;1.70;;
56911;SDS011;42800;53.928;27.662;2023-04-25T13:08:17;2.58;;;2.15;;
56911;SDS011;42800;53.928;27.662;2023-04-25T13:10:43;4.07;;;2.35;;
56911;SDS011;42800;53.928;27.662;2023-04-25T13:13:10;2.92;;;2.40;;
56911;SDS011;42800;53.928;27.662;2023-04-25T13:15:36;3.67;;;2.30;;
56911;SDS011;42800;53.928;27.662;2023-04-25T13:18:03;4.53;;;2.17;;
56911;SDS011;42800;53.928;27.662;2023-04-25T13:20:30;2.35;;;2.13;;
56911;SDS011;42800;53.928;27.662;2023-04-25T13:22:56;2.72;;;1.83;;
56911;SDS011;42800;53.928;27.662;2023-04-25T13:25:22;2.28;;;1.77;;
56911;SDS011;42800;53.928;27.662;2023-04-25T13:27:48;3.40;;;1.60;;
56911;SDS011;42800;53.928;27.662;2023-04-25T13:30:14;2.00;;;1.90;;
56911;SDS011;42800;53.928;27.662;2023-04-25T13:32:40;2.33;;;1.88;;
56911;SDS011;42800;53.928;27.662;2023-04-25T13:35:07;2.67;;;1.77;;
56911;SDS011;42800;53.928;27.662;2023-04-25T13:37:35;2.60;;;2.28;;
56911;SDS011;42800;53.928;27.662;2023-04-25T13:40:01;3.50;;;2.38;;
56911;SDS011;42800;53.928;27.662;2023-04-25T13:42:30;5.13;;;2.38;;
56911;SDS011;42800;53.928;27.662;2023-04-25T13:44:56;3.72;;;2.30;;
56911;SDS011;42800;53.928;27.662;2023-04-25T13:47:22;6.43;;;2.70;;
56911;SDS011;42800;53.928;27.662;2023-04-25T13:49:48;2.50;;;2.30;;
56911;SDS011;42800;53.928;27.662;2023-04-25T13:52:15;4.65;;;2.67;;
56911;SDS011;42800;53.928;27.662;2023-04-25T13:54:41;3.28;;;2.90;;
56911;SDS011;42800;53.928;27.662;2023-04-25T13:57:07;2.90;;;2.47;;
56911;SDS011;42800;53.928;27.662;2023-04-25T13:59:33;10.68;;;2.83;;
56911;SDS011;42800;53.928;27.662;2023-04-25T14:01:59;3.67;;;2.97;;
56911;SDS011;42800;53.928;27.662;2023-04-25T14:04:25;6.93;;;2.58;;
56911;SDS011;42800;53.928;27.662;2023-04-25T14:06:52;2.75;;;2.47;;
56911;SDS011;42800;53.928;27.662;2023-04-25T14:09:19;2.97;;;2.17;;
56911;SDS011;42800;53.928;27.662;2023-04-25T14:11:50;3.08;;;2.70;;
56911;SDS011;42800;53.928;27.662;2023-04-25T14:14:16;4.60;;;2.85;;
56911;SDS011;42800;53.928;27.662;2023-04-25T14:16:42;4.78;;;2.95;;
56911;SDS011;42800;53.928;27.662;2023-04-25T14:19:08;4.30;;;2.20;;
56911;SDS011;42800;53.928;27.662;2023-04-25T14:21:34;4.85;;;2.28;;
56911;SDS011;42800;53.928;27.662;2023-04-25T14:24:00;6.10;;;2.10;;
56911;SDS011;42800;53.928;27.662;2023-04-25T14:26:26;2.33;;;2.13;;
56911;SDS011;42800;53.928;27.662;2023-04-25T14:28:52;3.28;;;2.15;;
56911;SDS011;42800;53.928;27.662;2023-04-25T14:31:18;2.25;;;2.05;;